KSZL/SZL METAR and TAF weather

Enter ICAO airport designator
Station Type Date Time Source
KSZL METAR 2020/04/03 22:17 UTC NOAA

KSZL 032217Z 32010KT 5SM -RA OVC009 01/01 A3011 RMK AO2A SLP205 $


Station Type Date Time Source
KSZL Decoded METAR 2020/04/03 22:17 UTC NOAA

Whiteman Air Force Base, MO, United States (KSZL) 38-44N 093-33W
Apr 03, 2020 - 06:17 PM EDT / 2020.04.03 2217 UTC
Wind: from the NW (320 degrees) at 12 MPH (10 KT):0
Visibility: 5 mile(s):0
Sky conditions: overcast
Weather: light rain
Temperature: 33 F (1 C)
Windchill: 24 F (-4 C):1
Dew Point: 33 F (1 C)
Relative Humidity: 100%
Pressure (altimeter): 30.11 in. Hg (1019 hPa)
ob: KSZL 032217Z 32010KT 5SM -RA OVC009 01/01 A3011 RMK AO2A SLP205
cycle: 22

Station Type Date Time Source
KSZL TAF 2020/04/03 19:09 UTC NOAA

TAF KSZL 031900Z 0319/0501 34012G18KT 8000 -SHRA OVC010 660202 620406 QNH3007INS
TEMPO 0319/0324 VRB15G25KT 3200 -TSRA OVC008CB
BECMG 0400/0401 36012KT 9999 NSW OVC010 620158 QNH3011INS
BECMG 0416/0417 02009KT 9999 BKN025 620255 QNH3004INS TX08/0419Z TN01/0412Z

Example: see airport list